sensor_id;sensor_type;location;lat;lon;timestamp;pressure;altitude;pressure_sealevel;temperature;humidity
13314;BME280;6725;48.112;11.604;2023-09-19T00:00:45;94656.28;;;16.43;100.00
13314;BME280;6725;48.112;11.604;2023-09-19T00:03:12;94664.09;;;16.45;100.00
13314;BME280;6725;48.112;11.604;2023-09-19T00:05:38;94677.41;;;16.47;100.00
13314;BME280;6725;48.112;11.604;2023-09-19T00:08:04;94683.25;;;16.49;100.00
13314;BME280;6725;48.112;11.604;2023-09-19T00:10:33;94696.09;;;16.52;100.00
13314;BME280;6725;48.112;11.604;2023-09-19T00:13:04;94698.38;;;16.53;100.00
13314;BME280;6725;48.112;11.604;2023-09-19T00:15:40;94712.94;;;16.54;100.00
13314;BME280;6725;48.112;11.604;2023-09-19T00:18:07;94729.03;;;16.55;100.00
13314;BME280;6725;48.112;11.604;2023-09-19T00:20:36;94733.63;;;16.58;100.00
13314;BME280;6725;48.112;11.604;2023-09-19T00:23:01;94746.97;;;16.60;100.00
13314;BME280;6725;48.112;11.604;2023-09-19T00:25:35;94754.00;;;16.61;100.00
13314;BME280;6725;48.112;11.604;2023-09-19T00:28:01;94756.75;;;16.61;100.00
13314;BME280;6725;48.112;11.604;2023-09-19T00:30:26;94765.03;;;16.61;100.00
13314;BME280;6725;48.112;11.604;2023-09-19T00:32:52;94770.56;;;16.61;100.00
13314;BME280;6725;48.112;11.604;2023-09-19T00:35:21;94772.06;;;16.62;100.00
13314;BME280;6725;48.112;11.604;2023-09-19T00:37:49;94769.31;;;16.62;100.00
13314;BME280;6725;48.112;11.604;2023-09-19T00:40:15;94770.84;;;16.63;100.00
13314;BME280;6725;48.112;11.604;2023-09-19T00:42:42;94768.88;;;16.63;100.00
13314;BME280;6725;48.112;11.604;2023-09-19T00:45:08;94773.47;;;16.66;100.00
13314;BME280;6725;48.112;11.604;2023-09-19T00:47:49;94770.38;;;16.64;100.00
13314;BME280;6725;48.112;11.604;2023-09-19T00:50:18;94773.94;;;16.65;100.00
13314;BME280;6725;48.112;11.604;2023-09-19T00:52:46;94780.34;;;16.62;100.00
13314;BME280;6725;48.112;11.604;2023-09-19T00:55:12;94775.00;;;16.58;100.00
13314;BME280;6725;48.112;11.604;2023-09-19T00:57:39;94778.50;;;16.59;100.00
13314;BME280;6725;48.112;11.604;2023-09-19T01:00:06;94792.59;;;16.61;100.00
13314;BME280;6725;48.112;11.604;2023-09-19T01:02:34;94788.78;;;16.58;100.00
13314;BME280;6725;48.112;11.604;2023-09-19T01:05:00;94784.91;;;16.56;100.00
13314;BME280;6725;48.112;11.604;2023-09-19T01:07:27;94783.41;;;16.55;100.00
13314;BME280;6725;48.112;11.604;2023-09-19T01:09:55;94796.72;;;16.56;100.00
13314;BME280;6725;48.112;11.604;2023-09-19T01:12:49;94797.97;;;16.55;100.00
13314;BME280;6725;48.112;11.604;2023-09-19T01:23:41;94804.22;;;16.56;100.00
13314;BME280;6725;48.112;11.604;2023-09-19T01:26:50;94801.47;;;16.56;100.00
13314;BME280;6725;48.112;11.604;2023-09-19T01:32:03;94801.47;;;16.56;100.00
13314;BME280;6725;48.112;11.604;2023-09-19T01:37:16;94811.59;;;16.59;100.00
13314;BME280;6725;48.112;11.604;2023-09-19T01:39:47;94818.66;;;16.60;100.00
13314;BME280;6725;48.112;11.604;2023-09-19T01:47:33;94829.69;;;16.60;100.00
13314;BME280;6725;48.112;11.604;2023-09-19T01:52:49;94842.25;;;16.61;100.00
13314;BME280;6725;48.112;11.604;2023-09-19T01:55:17;94840.22;;;16.61;100.00
13314;BME280;6725;48.112;11.604;2023-09-19T01:58:14;94843.75;;;16.62;100.00
13314;BME280;6725;48.112;11.604;2023-09-19T02:00:42;94839.78;;;16.63;100.00
13314;BME280;6725;48.112;11.604;2023-09-19T02:03:10;94840.22;;;16.61;100.00
13314;BME280;6725;48.112;11.604;2023-09-19T02:05:37;94838.56;;;16.64;100.00
13314;BME280;6725;48.112;11.604;2023-09-19T02:08:03;94846.84;;;16.64;100.00
13314;BME280;6725;48.112;11.604;2023-09-19T02:10:29;94853.88;;;16.65;100.00
13314;BME280;6725;48.112;11.604;2023-09-19T02:12:54;94859.41;;;16.65;100.00
13314;BME280;6725;48.112;11.604;2023-09-19T02:15:19;94851.59;;;16.63;100.00
13314;BME280;6725;48.112;11.604;2023-09-19T02:17:45;94846.53;;;16.62;100.00
13314;BME280;6725;48.112;11.604;2023-09-19T02:20:11;94846.22;;;16.60;100.00
13314;BME280;6725;48.112;11.604;2023-09-19T02:22:40;94841.91;;;16.59;100.00
13314;BME280;6725;48.112;11.604;2023-09-19T02:25:07;94844.38;;;16.57;100.00
13314;BME280;6725;48.112;11.604;2023-09-19T02:27:33;94843.75;;;16.53;100.00
13314;BME280;6725;48.112;11.604;2023-09-19T02:29:58;94837.91;;;16.51;100.00
13314;BME280;6725;48.112;11.604;2023-09-19T02:32:24;94842.81;;;16.47;100.00
13314;BME280;6725;48.112;11.604;2023-09-19T02:34:49;94839.72;;;16.44;100.00
13314;BME280;6725;48.112;11.604;2023-09-19T02:37:17;94833.91;;;16.42;100.00
13314;BME280;6725;48.112;11.604;2023-09-19T02:39:44;94833.69;;;16.37;100.00
13314;BME280;6725;48.112;11.604;2023-09-19T02:42:09;94834.94;;;16.36;100.00
13314;BME280;6725;48.112;11.604;2023-09-19T02:44:35;94826.78;;;16.32;100.00
13314;BME280;6725;48.112;11.604;2023-09-19T02:47:00;94827.69;;;16.29;100.00
13314;BME280;6725;48.112;11.604;2023-09-19T02:49:26;94827.41;;;16.27;100.00
13314;BME280;6725;48.112;11.604;2023-09-19T02:51:51;94820.03;;;16.24;100.00
13314;BME280;6725;48.112;11.604;2023-09-19T02:54:17;94823.09;;;16.26;100.00
13314;BME280;6725;48.112;11.604;2023-09-19T02:56:43;94822.16;;;16.20;100.00
13314;BME280;6725;48.112;11.604;2023-09-19T02:59:08;94816.31;;;16.18;100.00
13314;BME280;6725;48.112;11.604;2023-09-19T03:01:35;94806.22;;;16.15;100.00
13314;BME280;6725;48.112;11.604;2023-09-19T03:04:02;94798.88;;;16.12;100.00
13314;BME280;6725;48.112;11.604;2023-09-19T03:06:28;94794.09;;;16.13;100.00
13314;BME280;6725;48.112;11.604;2023-09-19T03:08:56;94790.59;;;16.12;100.00
13314;BME280;6725;48.112;11.604;2023-09-19T03:11:22;94787.84;;;16.12;100.00
13314;BME280;6725;48.112;11.604;2023-09-19T03:13:52;94789.69;;;16.15;100.00
13314;BME280;6725;48.112;11.604;2023-09-19T03:16:18;94787.84;;;16.12;100.00
13314;BME280;6725;48.112;11.604;2023-09-19T03:18:47;94797.63;;;16.13;100.00
13314;BME280;6725;48.112;11.604;2023-09-19T03:21:13;94803.47;;;16.15;100.00
13314;BME280;6725;48.112;11.604;2023-09-19T03:23:39;94800.72;;;16.15;100.00
13314;BME280;6725;48.112;11.604;2023-09-19T03:26:04;94825.81;;;16.17;100.00
13314;BME280;6725;48.112;11.604;2023-09-19T03:28:33;94821.09;;;16.18;100.00
13314;BME280;6725;48.112;11.604;2023-09-19T03:31:03;94835.94;;;16.20;100.00
13314;BME280;6725;48.112;11.604;2023-09-19T03:33:29;94861.03;;;16.22;100.00
13314;BME280;6725;48.112;11.604;2023-09-19T03:35:56;94870.84;;;16.23;100.00
13314;BME280;6725;48.112;11.604;2023-09-19T03:38:25;94880.66;;;16.24;100.00
13314;BME280;6725;48.112;11.604;2023-09-19T03:40:50;94886.50;;;16.26;100.00
13314;BME280;6725;48.112;11.604;2023-09-19T03:43:16;94893.97;;;16.26;100.00
13314;BME280;6725;48.112;11.604;2023-09-19T03:45:42;94904.22;;;16.25;100.00
13314;BME280;6725;48.112;11.604;2023-09-19T03:48:10;94903.03;;;16.26;100.00
13314;BME280;6725;48.112;11.604;2023-09-19T03:50:36;94902.25;;;16.26;100.00
13314;BME280;6725;48.112;11.604;2023-09-19T03:53:02;94904.84;;;16.29;100.00
13314;BME280;6725;48.112;11.604;2023-09-19T03:55:27;94914.34;;;16.28;100.00
13314;BME280;6725;48.112;11.604;2023-09-19T03:57:53;94917.44;;;16.30;100.00
13314;BME280;6725;48.112;11.604;2023-09-19T04:00:18;94911.00;;;16.33;100.00
13314;BME280;6725;48.112;11.604;2023-09-19T04:02:47;94928.84;;;16.42;100.00
13314;BME280;6725;48.112;11.604;2023-09-19T04:05:13;94921.75;;;16.40;100.00
13314;BME280;6725;48.112;11.604;2023-09-19T04:07:38;94930.69;;;16.44;100.00
13314;BME280;6725;48.112;11.604;2023-09-19T04:10:04;94929.34;;;16.49;100.00
13314;BME280;6725;48.112;11.604;2023-09-19T04:12:29;94935.63;;;16.50;100.00
13314;BME280;6725;48.112;11.604;2023-09-19T04:14:55;94942.38;;;16.49;100.00
13314;BME280;6725;48.112;11.604;2023-09-19T04:17:20;94948.19;;;16.51;100.00
13314;BME280;6725;48.112;11.604;2023-09-19T04:19:45;94951.28;;;16.53;100.00
13314;BME280;6725;48.112;11.604;2023-09-19T04:22:11;94951.00;;;16.60;100.00
13314;BME280;6725;48.112;11.604;2023-09-19T04:24:37;94959.84;;;16.55;100.00
13314;BME280;6725;48.112;11.604;2023-09-19T04:27:03;94967.84;;;16.62;100.00
13314;BME280;6725;48.112;11.604;2023-09-19T04:29:29;94979.31;;;16.60;100.00
13314;BME280;6725;48.112;11.604;2023-09-19T04:31:55;94982.06;;;16.60;100.00
13314;BME280;6725;48.112;11.604;2023-09-19T04:34:21;94991.13;;;16.61;100.00
13314;BME280;6725;48.112;11.604;2023-09-19T04:36:46;94989.44;;;16.63;100.00
13314;BME280;6725;48.112;11.604;2023-09-19T04:39:12;95000.63;;;16.60;100.00
13314;BME280;6725;48.112;11.604;2023-09-19T04:41:38;95002.78;;;16.65;100.00
13314;BME280;6725;48.112;11.604;2023-09-19T04:44:07;95005.22;;;16.63;100.00
13314;BME280;6725;48.112;11.604;2023-09-19T04:46:35;95004.94;;;16.70;100.00
13314;BME280;6725;48.112;11.604;2023-09-19T04:49:00;95015.34;;;16.66;100.00
13314;BME280;6725;48.112;11.604;2023-09-19T04:51:26;95019.34;;;16.65;100.00
13314;BME280;6725;48.112;11.604;2023-09-19T04:53:54;95022.09;;;16.65;100.00
13314;BME280;6725;48.112;11.604;2023-09-19T04:56:19;95024.84;;;16.65;100.00
13314;BME280;6725;48.112;11.604;2023-09-19T04:58:46;95034.34;;;16.64;100.00
13314;BME280;6725;48.112;11.604;2023-09-19T05:01:11;95036.66;;;16.65;100.00
13314;BME280;6725;48.112;11.604;2023-09-19T05:03:39;95045.69;;;16.66;100.00
13314;BME280;6725;48.112;11.604;2023-09-19T05:06:04;95041.41;;;16.65;100.00
13314;BME280;6725;48.112;11.604;2023-09-19T05:08:30;95051.53;;;16.68;100.00
13314;BME280;6725;48.112;11.604;2023-09-19T05:10:55;95059.22;;;16.73;100.00
13314;BME280;6725;48.112;11.604;2023-09-19T05:13:21;95067.84;;;16.84;100.00
13314;BME280;6725;48.112;11.604;2023-09-19T05:15:48;95074.97;;;16.94;100.00
13314;BME280;6725;48.112;11.604;2023-09-19T05:18:13;95089.75;;;17.09;100.00
13314;BME280;6725;48.112;11.604;2023-09-19T05:20:39;95094.41;;;17.21;100.00
13314;BME280;6725;48.112;11.604;2023-09-19T05:23:05;95104.69;;;17.20;100.00
13314;BME280;6725;48.112;11.604;2023-09-19T05:25:35;95111.63;;;17.55;100.00
13314;BME280;6725;48.112;11.604;2023-09-19T05:28:08;95131.84;;;17.92;100.00
13314;BME280;6725;48.112;11.604;2023-09-19T05:30:34;95146.09;;;18.48;100.00
13314;BME280;6725;48.112;11.604;2023-09-19T05:33:08;95163.31;;;18.70;100.00
13314;BME280;6725;48.112;11.604;2023-09-19T05:35:34;95167.59;;;18.53;100.00
13314;BME280;6725;48.112;11.604;2023-09-19T05:38:00;95183.06;;;18.32;100.00
13314;BME280;6725;48.112;11.604;2023-09-19T05:40:25;95189.94;;;18.19;100.00
13314;BME280;6725;48.112;11.604;2023-09-19T05:42:51;95188.66;;;17.93;100.00
13314;BME280;6725;48.112;11.604;2023-09-19T05:45:17;95187.41;;;17.85;100.00
13314;BME280;6725;48.112;11.604;2023-09-19T05:47:52;95191.38;;;17.84;100.00
13314;BME280;6725;48.112;11.604;2023-09-19T05:50:21;95178.94;;;17.79;100.00
13314;BME280;6725;48.112;11.604;2023-09-19T05:52:53;95187.66;;;17.78;100.00
13314;BME280;6725;48.112;11.604;2023-09-19T05:55:19;95191.00;;;17.73;100.00
13314;BME280;6725;48.112;11.604;2023-09-19T05:57:52;95190.09;;;17.76;100.00
13314;BME280;6725;48.112;11.604;2023-09-19T06:00:19;95185.19;;;17.71;100.00
13314;BME280;6725;48.112;11.604;2023-09-19T06:02:51;95188.66;;;18.02;100.00
13314;BME280;6725;48.112;11.604;2023-09-19T06:05:17;95195.91;;;19.11;100.00
13314;BME280;6725;48.112;11.604;2023-09-19T06:07:43;95215.44;;;20.59;100.00
13314;BME280;6725;48.112;11.604;2023-09-19T06:10:09;95234.88;;;20.83;100.00
13314;BME280;6725;48.112;11.604;2023-09-19T06:12:44;95234.09;;;20.82;100.00
13314;BME280;6725;48.112;11.604;2023-09-19T06:15:10;95239.19;;;20.60;100.00
13314;BME280;6725;48.112;11.604;2023-09-19T06:17:43;95236.72;;;20.62;100.00
13314;BME280;6725;48.112;11.604;2023-09-19T06:20:11;95233.91;;;20.39;100.00
13314;BME280;6725;48.112;11.604;2023-09-19T06:22:40;95246.34;;;21.52;100.00
13314;BME280;6725;48.112;11.604;2023-09-19T06:25:07;95249.13;;;22.54;100.00
13314;BME280;6725;48.112;11.604;2023-09-19T06:27:32;95252.88;;;22.36;100.00
13314;BME280;6725;48.112;11.604;2023-09-19T06:29:57;95250.03;;;22.65;100.00
13314;BME280;6725;48.112;11.604;2023-09-19T06:32:29;95246.13;;;23.32;100.00
13314;BME280;6725;48.112;11.604;2023-09-19T06:34:55;95238.81;;;24.42;100.00
13314;BME280;6725;48.112;11.604;2023-09-19T06:37:21;95245.88;;;24.68;100.00
13314;BME280;6725;48.112;11.604;2023-09-19T06:39:47;95251.69;;;24.03;100.00
13314;BME280;6725;48.112;11.604;2023-09-19T06:42:14;95256.13;;;23.44;100.00
13314;BME280;6725;48.112;11.604;2023-09-19T06:44:42;95257.38;;;22.83;100.00
13314;BME280;6725;48.112;11.604;2023-09-19T06:47:07;95256.47;;;22.71;100.00
13314;BME280;6725;48.112;11.604;2023-09-19T06:49:33;95256.78;;;22.59;100.00
13314;BME280;6725;48.112;11.604;2023-09-19T06:51:58;95263.09;;;21.95;100.00
13314;BME280;6725;48.112;11.604;2023-09-19T06:54:24;95271.53;;;21.86;100.00
13314;BME280;6725;48.112;11.604;2023-09-19T06:56:49;95280.72;;;21.25;100.00
13314;BME280;6725;48.112;11.604;2023-09-19T06:59:14;95281.22;;;20.91;100.00
13314;BME280;6725;48.112;11.604;2023-09-19T07:01:40;95272.97;;;21.29;100.00
13314;BME280;6725;48.112;11.604;2023-09-19T07:04:06;95271.03;;;22.81;100.00
13314;BME280;6725;48.112;11.604;2023-09-19T07:06:31;95271.84;;;23.21;100.00
13314;BME280;6725;48.112;11.604;2023-09-19T07:08:57;95271.41;;;23.94;100.00
13314;BME280;6725;48.112;11.604;2023-09-19T07:11:22;95283.81;;;23.47;100.00
13314;BME280;6725;48.112;11.604;2023-09-19T07:13:48;95277.72;;;22.89;100.00
13314;BME280;6725;48.112;11.604;2023-09-19T07:16:14;95286.84;;;22.40;100.00
13314;BME280;6725;48.112;11.604;2023-09-19T07:18:52;95290.91;;;21.95;100.00
13314;BME280;6725;48.112;11.604;2023-09-19T07:21:18;95288.53;;;21.50;100.00
13314;BME280;6725;48.112;11.604;2023-09-19T07:23:43;95297.78;;;21.09;100.00
13314;BME280;6725;48.112;11.604;2023-09-19T07:26:08;95300.22;;;21.16;100.00
13314;BME280;6725;48.112;11.604;2023-09-19T07:28:34;95299.13;;;20.99;100.00
13314;BME280;6725;48.112;11.604;2023-09-19T07:31:02;95303.13;;;20.98;100.00
13314;BME280;6725;48.112;11.604;2023-09-19T07:33:28;95304.31;;;21.06;100.00
13314;BME280;6725;48.112;11.604;2023-09-19T07:35:54;95304.13;;;21.10;100.00
13314;BME280;6725;48.112;11.604;2023-09-19T07:38:19;95312.03;;;22.16;100.00
13314;BME280;6725;48.112;11.604;2023-09-19T07:40:45;95304.81;;;22.88;100.00
13314;BME280;6725;48.112;11.604;2023-09-19T07:43:11;95300.97;;;22.86;100.00
13314;BME280;6725;48.112;11.604;2023-09-19T07:45:36;95301.78;;;22.72;100.00
13314;BME280;6725;48.112;11.604;2023-09-19T07:48:02;95301.66;;;22.31;100.00
13314;BME280;6725;48.112;11.604;2023-09-19T07:50:30;95306.16;;;22.29;100.00
13314;BME280;6725;48.112;11.604;2023-09-19T07:52:55;95299.50;;;23.25;100.00
13314;BME280;6725;48.112;11.604;2023-09-19T07:55:21;95301.53;;;23.24;100.00
13314;BME280;6725;48.112;11.604;2023-09-19T07:57:51;95297.69;;;23.22;100.00
13314;BME280;6725;48.112;11.604;2023-09-19T08:00:17;95305.59;;;23.09;100.00
13314;BME280;6725;48.112;11.604;2023-09-19T08:02:43;95296.56;;;23.99;100.00
13314;BME280;6725;48.112;11.604;2023-09-19T08:05:10;95293.34;;;24.63;100.00
13314;BME280;6725;48.112;11.604;2023-09-19T08:07:37;95308.63;;;24.11;100.00
13314;BME280;6725;48.112;11.604;2023-09-19T08:10:04;95308.06;;;24.07;100.00
13314;BME280;6725;48.112;11.604;2023-09-19T08:12:29;95305.09;;;24.41;100.00
13314;BME280;6725;48.112;11.604;2023-09-19T08:14:55;95311.41;;;23.65;100.00
13314;BME280;6725;48.112;11.604;2023-09-19T08:17:21;95308.06;;;24.07;100.00
13314;BME280;6725;48.112;11.604;2023-09-19T08:19:48;95310.88;;;23.87;100.00
13314;BME280;6725;48.112;11.604;2023-09-19T08:22:14;95310.09;;;23.61;100.00
13314;BME280;6725;48.112;11.604;2023-09-19T08:24:42;95301.22;;;24.64;100.00
13314;BME280;6725;48.112;11.604;2023-09-19T08:27:08;95297.38;;;25.41;100.00
13314;BME280;6725;48.112;11.604;2023-09-19T08:29:35;95304.13;;;25.76;100.00
13314;BME280;6725;48.112;11.604;2023-09-19T08:32:00;95303.59;;;25.72;100.00
13314;BME280;6725;48.112;11.604;2023-09-19T08:34:26;95300.91;;;24.93;100.00
13314;BME280;6725;48.112;11.604;2023-09-19T08:36:55;95301.25;;;25.60;100.00
13314;BME280;6725;48.112;11.604;2023-09-19T08:39:24;95303.97;;;27.01;100.00
13314;BME280;6725;48.112;11.604;2023-09-19T08:42:00;95305.63;;;28.51;100.00
13314;BME280;6725;48.112;11.604;2023-09-19T08:44:26;95309.97;;;28.82;100.00
13314;BME280;6725;48.112;11.604;2023-09-19T08:47:07;95297.84;;;29.22;100.00
13314;BME280;6725;48.112;11.604;2023-09-19T08:50:01;95313.03;;;28.84;100.00
13314;BME280;6725;48.112;11.604;2023-09-19T08:52:37;95300.38;;;27.90;100.00
13314;BME280;6725;48.112;11.604;2023-09-19T08:55:07;95318.16;;;27.47;100.00
13314;BME280;6725;48.112;11.604;2023-09-19T08:57:36;95319.78;;;27.04;100.00
13314;BME280;6725;48.112;11.604;2023-09-19T09:00:05;95310.44;;;27.69;100.00
13314;BME280;6725;48.112;11.604;2023-09-19T09:02:38;95310.31;;;27.23;100.00
13314;BME280;6725;48.112;11.604;2023-09-19T09:05:08;95314.06;;;27.48;100.00
13314;BME280;6725;48.112;11.604;2023-09-19T09:07:35;95312.63;;;27.25;100.00
13314;BME280;6725;48.112;11.604;2023-09-19T09:10:05;95320.53;;;26.27;100.00
13314;BME280;6725;48.112;11.604;2023-09-19T09:12:31;95318.25;;;26.48;100.00
13314;BME280;6725;48.112;11.604;2023-09-19T09:14:56;95312.31;;;25.96;100.00
13314;BME280;6725;48.112;11.604;2023-09-19T09:17:26;95317.38;;;24.86;100.00
13314;BME280;6725;48.112;11.604;2023-09-19T09:19:54;95330.72;;;24.40;100.00
13314;BME280;6725;48.112;11.604;2023-09-19T09:22:21;95326.78;;;23.81;100.00
13314;BME280;6725;48.112;11.604;2023-09-19T09:24:53;95334.00;;;23.47;100.00
13314;BME280;6725;48.112;11.604;2023-09-19T09:27:19;95338.19;;;23.03;100.00
13314;BME280;6725;48.112;11.604;2023-09-19T09:29:46;95321.00;;;22.70;100.00
13314;BME280;6725;48.112;11.604;2023-09-19T09:32:32;95313.66;;;23.87;100.00
13314;BME280;6725;48.112;11.604;2023-09-19T09:35:01;95315.19;;;25.43;100.00
13314;BME280;6725;48.112;11.604;2023-09-19T09:37:28;95306.03;;;26.56;100.00
13314;BME280;6725;48.112;11.604;2023-09-19T09:40:00;95313.28;;;27.58;100.00
13314;BME280;6725;48.112;11.604;2023-09-19T09:42:45;95321.44;;;27.56;100.00
13314;BME280;6725;48.112;11.604;2023-09-19T09:45:22;95321.13;;;27.71;100.00
13314;BME280;6725;48.112;11.604;2023-09-19T09:48:00;95325.63;;;26.12;100.00
13314;BME280;6725;48.112;11.604;2023-09-19T09:50:35;95316.97;;;25.41;100.00
13314;BME280;6725;48.112;11.604;2023-09-19T09:53:27;95322.59;;;25.52;100.00
13314;BME280;6725;48.112;11.604;2023-09-19T09:56:05;95320.38;;;24.77;100.00
13314;BME280;6725;48.112;11.604;2023-09-19T09:58:37;95333.16;;;24.32;100.00
13314;BME280;6725;48.112;11.604;2023-09-19T10:01:05;95330.72;;;24.71;100.00
13314;BME280;6725;48.112;11.604;2023-09-19T10:03:39;95321.69;;;25.93;100.00
13314;BME280;6725;48.112;11.604;2023-09-19T10:06:10;95322.53;;;27.20;100.00
13314;BME280;6725;48.112;11.604;2023-09-19T10:09:09;95329.44;;;27.98;100.00
13314;BME280;6725;48.112;11.604;2023-09-19T10:12:05;95330.94;;;27.42;100.00
13314;BME280;6725;48.112;11.604;2023-09-19T10:14:35;95320.44;;;28.11;100.00
13314;BME280;6725;48.112;11.604;2023-09-19T10:17:04;95323.84;;;27.93;98.35
13314;BME280;6725;48.112;11.604;2023-09-19T10:19:37;95326.47;;;27.74;98.61
13314;BME280;6725;48.112;11.604;2023-09-19T10:22:05;95331.19;;;27.44;99.41
13314;BME280;6725;48.112;11.604;2023-09-19T10:24:35;95338.31;;;27.45;100.00
13314;BME280;6725;48.112;11.604;2023-09-19T10:27:01;95332.16;;;28.56;95.33
13314;BME280;6725;48.112;11.604;2023-09-19T10:29:32;95325.69;;;28.96;94.09
13314;BME280;6725;48.112;11.604;2023-09-19T10:31:58;95319.31;;;28.66;93.18
13314;BME280;6725;48.112;11.604;2023-09-19T10:34:25;95317.72;;;29.00;94.33
13314;BME280;6725;48.112;11.604;2023-09-19T10:36:52;95320.47;;;29.11;86.23
13314;BME280;6725;48.112;11.604;2023-09-19T10:39:18;95333.94;;;28.59;92.46
13314;BME280;6725;48.112;11.604;2023-09-19T10:41:49;95319.69;;;29.10;85.89
13314;BME280;6725;48.112;11.604;2023-09-19T10:44:21;95328.97;;;29.05;85.14
13314;BME280;6725;48.112;11.604;2023-09-19T10:46:47;95326.41;;;28.43;89.30
13314;BME280;6725;48.112;11.604;2023-09-19T10:49:13;95333.22;;;27.49;90.55
13314;BME280;6725;48.112;11.604;2023-09-19T10:51:41;95333.16;;;28.58;88.80
13314;BME280;6725;48.112;11.604;2023-09-19T10:54:12;95332.59;;;28.30;90.40
13314;BME280;6725;48.112;11.604;2023-09-19T10:56:43;95334.03;;;28.01;93.16
13314;BME280;6725;48.112;11.604;2023-09-19T10:59:16;95314.25;;;28.59;91.67
13314;BME280;6725;48.112;11.604;2023-09-19T11:04:29;95332.19;;;29.15;86.71
13314;BME280;6725;48.112;11.604;2023-09-19T11:07:09;95334.06;;;28.72;92.57
13314;BME280;6725;48.112;11.604;2023-09-19T11:09:52;95322.41;;;28.62;95.30
13314;BME280;6725;48.112;11.604;2023-09-19T11:15:06;95318.13;;;28.09;100.00
13314;BME280;6725;48.112;11.604;2023-09-19T11:17:37;95321.06;;;27.82;98.11
13314;BME280;6725;48.112;11.604;2023-09-19T11:30:44;95318.13;;;25.82;100.00
13314;BME280;6725;48.112;11.604;2023-09-19T11:36:11;95318.25;;;25.51;100.00
13314;BME280;6725;48.112;11.604;2023-09-19T11:49:18;95328.19;;;25.52;100.00
13314;BME280;6725;48.112;11.604;2023-09-19T11:51:50;95323.16;;;25.67;100.00
13314;BME280;6725;48.112;11.604;2023-09-19T11:54:17;95318.75;;;25.49;100.00
13314;BME280;6725;48.112;11.604;2023-09-19T11:56:45;95317.38;;;24.86;100.00
13314;BME280;6725;48.112;11.604;2023-09-19T11:59:11;95314.25;;;24.73;100.00
13314;BME280;6725;48.112;11.604;2023-09-19T12:01:38;95313.22;;;24.76;100.00
13314;BME280;6725;48.112;11.604;2023-09-19T12:04:08;95322.34;;;25.07;100.00
13314;BME280;6725;48.112;11.604;2023-09-19T12:06:36;95319.53;;;25.02;100.00
13314;BME280;6725;48.112;11.604;2023-09-19T12:09:04;95310.69;;;25.20;100.00
13314;BME280;6725;48.112;11.604;2023-09-19T12:11:32;95314.28;;;25.20;100.00
13314;BME280;6725;48.112;11.604;2023-09-19T12:13:59;95304.72;;;24.96;100.00
13314;BME280;6725;48.112;11.604;2023-09-19T12:16:26;95302.81;;;24.76;100.00
13314;BME280;6725;48.112;11.604;2023-09-19T12:18:55;95310.00;;;24.88;100.00
13314;BME280;6725;48.112;11.604;2023-09-19T12:21:31;95303.03;;;24.67;100.00
13314;BME280;6725;48.112;11.604;2023-09-19T12:24:11;95300.25;;;24.42;100.00
13314;BME280;6725;48.112;11.604;2023-09-19T12:26:39;95300.59;;;24.24;100.00
13314;BME280;6725;48.112;11.604;2023-09-19T12:29:11;95309.41;;;24.42;100.00
13314;BME280;6725;48.112;11.604;2023-09-19T12:31:50;95309.75;;;24.55;100.00
13314;BME280;6725;48.112;11.604;2023-09-19T12:34:19;95300.88;;;24.88;100.00
13314;BME280;6725;48.112;11.604;2023-09-19T12:36:45;95304.72;;;24.96;100.00
13314;BME280;6725;48.112;11.604;2023-09-19T12:39:10;95303.47;;;24.97;100.00
13314;BME280;6725;48.112;11.604;2023-09-19T12:41:37;95293.38;;;25.10;100.00
13314;BME280;6725;48.112;11.604;2023-09-19T12:44:04;95299.47;;;25.09;100.00
13314;BME280;6725;48.112;11.604;2023-09-19T12:46:34;95293.84;;;25.03;100.00
13314;BME280;6725;48.112;11.604;2023-09-19T12:49:20;95300.41;;;24.95;100.00
13314;BME280;6725;48.112;11.604;2023-09-19T12:51:46;95296.66;;;24.67;100.00
13314;BME280;6725;48.112;11.604;2023-09-19T12:54:13;95296.47;;;24.76;100.00
13314;BME280;6725;48.112;11.604;2023-09-19T12:56:45;95291.06;;;24.67;100.00
13314;BME280;6725;48.112;11.604;2023-09-19T12:59:13;95295.88;;;24.66;100.00
13314;BME280;6725;48.112;11.604;2023-09-19T13:01:42;95285.34;;;24.87;100.00
13314;BME280;6725;48.112;11.604;2023-09-19T13:04:19;95278.31;;;24.97;100.00
13314;BME280;6725;48.112;11.604;2023-09-19T13:06:49;95294.00;;;24.89;100.00
13314;BME280;6725;48.112;11.604;2023-09-19T13:09:16;95284.94;;;25.05;100.00
13314;BME280;6725;48.112;11.604;2023-09-19T13:11:42;95284.47;;;25.12;100.00
13314;BME280;6725;48.112;11.604;2023-09-19T13:14:23;95281.38;;;24.99;100.00
13314;BME280;6725;48.112;11.604;2023-09-19T13:17:09;95277.72;;;24.82;100.00
13314;BME280;6725;48.112;11.604;2023-09-19T13:19:51;95274.66;;;24.80;100.00
13314;BME280;6725;48.112;11.604;2023-09-19T13:22:42;95279.91;;;24.67;100.00
13314;BME280;6725;48.112;11.604;2023-09-19T13:25:12;95269.06;;;24.49;100.00
13314;BME280;6725;48.112;11.604;2023-09-19T13:27:44;95273.66;;;24.21;100.00
13314;BME280;6725;48.112;11.604;2023-09-19T13:30:10;95261.78;;;24.26;100.00
13314;BME280;6725;48.112;11.604;2023-09-19T13:32:36;95263.50;;;24.18;100.00
13314;BME280;6725;48.112;11.604;2023-09-19T13:35:02;95266.78;;;24.16;100.00
13314;BME280;6725;48.112;11.604;2023-09-19T13:37:30;95264.50;;;24.15;100.00
13314;BME280;6725;48.112;11.604;2023-09-19T13:39:55;95264.41;;;24.04;100.00
13314;BME280;6725;48.112;11.604;2023-09-19T13:42:23;95263.31;;;23.96;100.00
13314;BME280;6725;48.112;11.604;2023-09-19T13:44:49;95255.47;;;24.00;100.00
13314;BME280;6725;48.112;11.604;2023-09-19T13:47:14;95249.91;;;24.00;100.00
13314;BME280;6725;48.112;11.604;2023-09-19T13:49:41;95255.47;;;24.00;100.00